Palma, Spain

3:46 AM CET on February 14, 2016 (GMT +0100)
Ciudad Jardin | | Change Station
CLOSE
Current Station
Personal Weather Station
Location: Palma De Mallorca, ILLES BALEARS
Elevation: 20 ft
Nearby Weather Stations

Elev 20 ft 39.55 °N, 2.69 °E | Updated 4 seconds ago

Partly Cloudy
Partly Cloudy
64.0 °F
Feels Like 64.0 °F
N
24.2
Wind Variable Wind from SW
Gusts 24.2 mph

Today
High -- | Low -- °F
--% Chance of Precip.
Yesterday
High -- | Low -- °F
Precip. -- in
Pressure 29.50 in
Visibility 6.2 miles
Clouds Few 3000 ft
Dew Point 56 °F
Humidity 76%
Rainfall 0.00 in
Snow Depth Not available.
7:43 AM 6:23 PM
Waxing Crescent, 36% visible
METAR LEPA 140230Z 25014KT 9999 FEW030 18/12 Q0999 NOSIG
Pressure 29.50 in
Visibility 6.2 miles
Clouds Few 3000 ft
Dew Point 56 °F
Humidity 76%
Rainfall 0.00 in
Snow Depth Not available.
7:43 AM 6:23 PM
Waxing Crescent, 36% visible
METAR LEPA 140230Z 25014KT 9999 FEW030 18/12 Q0999 NOSIG

10-Day Weather Forecast

Almanac

Astronomy

Feb. 14, 2016 Rise Set
Actual Time
Civil Twilight
Nautical Twilight
Astronomical Twilight
Moon
Length of Visible Light
Length of Day
Tomorrow will be .
, % of the Moon is Illuminated

Today's Extremes

Country Highs Country Lows

Community

WunderPhotos

Upload Photos

1,892,731 photos uploaded!

WunderBlog® & News

Nearby

Air Quality

  Air Quality AQ Index Pollutant
Not available.

Snow Depth

Station Depth Elevation

Earthquake Activity

City Distance Mag. Time & Date
Minimum magnitude displayed is 2.5.

Coastal Water Temperatures

Place Temperature

Stations

Nearby Weather Stations

Station Location Temp. Windchill Dew Point Humidity Wind Precip. Elev Updated Type